createdAt,value
2023-05-12T04:31:33.076Z,491.9231
2023-05-12T04:32:35.159Z,490.6923
2023-05-12T04:33:37.153Z,489.3077
2023-05-12T04:34:39.186Z,490.9231
2023-05-12T04:35:41.258Z,492.2308
2023-05-12T04:36:43.287Z,490.8462
2023-05-12T04:37:45.327Z,492.0769
2023-05-12T04:38:47.402Z,490.3846
2023-05-12T04:39:49.423Z,491.0769
2023-05-12T04:40:51.469Z,489.9231
2023-05-12T04:41:53.516Z,489.4615
2023-05-12T04:42:55.575Z,489.6154
2023-05-12T04:44:00.395Z,491.4615
2023-05-12T04:44:59.642Z,491.1538
2023-05-12T04:46:01.751Z,489.1538
2023-05-12T04:47:03.741Z,489.4615
2023-05-12T04:48:05.829Z,489.5385
2023-05-12T04:49:07.860Z,489.2308
2023-05-12T04:50:09.881Z,485.9231
2023-05-12T04:51:11.938Z,485.3077
2023-05-12T04:52:13.975Z,487.0769
2023-05-12T04:53:16.026Z,488.9231
2023-05-12T04:54:18.086Z,492.2308
2023-05-12T04:55:20.361Z,492.7692
2023-05-12T04:56:22.194Z,491.4615
2023-05-12T04:57:24.223Z,490.6923
2023-05-12T04:58:26.294Z,490.5385
2023-05-12T04:59:28.343Z,491.5385
2023-05-12T05:00:30.369Z,489.3077
2023-05-12T05:01:32.533Z,489.6154
2023-05-12T05:02:34.603Z,490.3846
2023-05-12T05:03:36.611Z,488.6154
2023-05-12T05:04:38.596Z,494.3077
2023-05-12T05:05:40.621Z,490.6154
2023-05-12T05:06:42.694Z,491.7692
2023-05-12T05:07:44.719Z,492.1538
2023-05-12T05:08:46.759Z,493.3077
2023-05-12T05:09:48.810Z,494.0000
2023-05-12T05:10:50.923Z,495.3077
2023-05-12T05:11:52.937Z,500.0769
2023-05-12T05:12:54.998Z,499.1538
2023-05-12T05:13:56.994Z,498.6154
2023-05-12T05:14:59.036Z,502.3846
2023-05-12T05:16:01.141Z,500.7692
2023-05-12T05:17:03.134Z,496.3846
2023-05-12T05:18:05.212Z,497.0000
2023-05-12T05:19:19.211Z,496.6923
2023-05-12T05:20:11.631Z,496.6923
2023-05-12T05:21:11.561Z,500.4615
2023-05-12T05:22:13.406Z,501.7692
2023-05-12T05:23:15.451Z,499.9231
2023-05-12T05:24:17.518Z,499.4615
2023-05-12T05:25:19.696Z,498.0000
2023-05-12T05:26:21.592Z,497.2308
2023-05-12T05:27:23.662Z,498.7692
2023-05-12T05:28:25.671Z,499.4615
2023-05-12T05:29:27.722Z,498.3846
2023-05-12T05:30:29.796Z,497.7692
2023-05-12T05:31:31.909Z,494.7692
2023-05-12T05:32:33.875Z,491.6923
2023-05-12T05:33:35.913Z,489.8462
2023-05-12T05:34:38.041Z,488.0000
2023-05-12T05:35:40.031Z,491.3077
2023-05-12T05:36:42.098Z,490.6923
2023-05-12T05:37:44.136Z,492.4615
2023-05-12T05:38:46.183Z,496.7692
2023-05-12T05:39:48.237Z,496.3077
2023-05-12T05:40:53.466Z,496.3077
2023-05-12T05:41:52.337Z,495.5385
2023-05-12T05:42:54.447Z,500.2308
2023-05-12T05:43:56.413Z,503.8462
2023-05-12T05:44:58.468Z,505.3077
2023-05-12T05:46:00.531Z,507.9231
2023-05-12T05:47:02.601Z,512.3077
2023-05-12T05:48:04.683Z,514.7692
2023-05-12T05:49:06.646Z,515.5385
2023-05-12T05:50:08.741Z,517.9231
2023-05-12T05:51:10.815Z,529.2308
2023-05-12T05:52:12.830Z,542.0769
2023-05-12T05:53:15.193Z,552.7692
2023-05-12T05:54:16.906Z,561.0769
2023-05-12T05:55:19.345Z,566.5385
2023-05-12T05:56:21.030Z,599.6923
2023-05-12T05:57:23.074Z,607.8461
2023-05-12T05:58:25.105Z,610.3077
2023-05-12T05:59:27.162Z,629.5385
2023-05-12T06:00:29.228Z,642.4615
2023-05-12T06:01:31.266Z,666.4615
2023-05-12T06:02:33.619Z,655.4615
2023-05-12T06:03:35.430Z,645.3846
2023-05-12T06:04:37.415Z,643.5385
2023-05-12T06:05:39.495Z,652.6923
2023-05-12T06:06:41.601Z,656.4615
2023-05-12T06:07:43.562Z,667.6923
2023-05-12T06:08:45.580Z,702.2308
2023-05-12T06:09:47.754Z,694.5385
2023-05-12T06:10:49.708Z,730.0769
2023-05-12T06:11:51.727Z,717.4615
2023-05-12T06:12:53.802Z,726.0769
2023-05-12T06:13:55.857Z,740.7692
2023-05-12T06:14:58.057Z,757.1539
2023-05-12T06:15:59.952Z,761.3846
2023-05-12T06:17:02.037Z,772.2308
2023-05-12T06:18:04.132Z,801.5385
2023-05-12T06:19:06.132Z,773.9231
2023-05-12T06:20:08.134Z,769.2308
2023-05-12T06:21:10.323Z,771.8461
2023-05-12T06:22:12.251Z,764.8461
2023-05-12T06:23:14.290Z,755.7692
2023-05-12T06:24:16.336Z,761.4615
2023-05-12T06:25:18.579Z,754.0000
2023-05-12T06:26:20.413Z,751.6154
2023-05-12T06:27:22.538Z,745.0000
2023-05-12T06:28:24.540Z,733.9231
2023-05-12T06:29:26.617Z,733.0000
2023-05-12T06:30:28.656Z,744.5385
2023-05-12T06:31:30.716Z,747.7692
2023-05-12T06:32:32.803Z,752.9231
2023-05-12T06:33:34.893Z,770.3077
2023-05-12T06:34:36.831Z,761.7692
2023-05-12T06:35:38.921Z,745.3846
2023-05-12T06:36:40.904Z,757.8461
2023-05-12T06:37:42.937Z,769.3846
2023-05-12T06:38:45.224Z,772.6154
2023-05-12T06:39:47.047Z,870.0769
2023-05-12T06:40:49.130Z,894.0000
2023-05-12T06:41:51.144Z,1025.9231
2023-05-12T06:42:53.211Z,835.3846
2023-05-12T06:43:55.383Z,822.6923
2023-05-12T06:44:57.303Z,784.3846
2023-05-12T06:45:59.353Z,734.8461
2023-05-12T06:47:01.363Z,735.0000
2023-05-12T06:48:03.497Z,727.2308
2023-05-12T06:49:05.578Z,719.7692
2023-05-12T06:50:07.523Z,736.9231
2023-05-12T06:51:09.571Z,741.9231
2023-05-12T06:52:11.605Z,753.5385
2023-05-12T06:53:13.694Z,753.6154
2023-05-12T06:54:15.693Z,745.0769
2023-05-12T06:55:17.915Z,756.6923
2023-05-12T06:56:19.797Z,759.0769
2023-05-12T06:57:21.813Z,751.8461
2023-05-12T06:58:23.933Z,734.3846
2023-05-12T06:59:25.921Z,724.9231
2023-05-12T07:00:27.967Z,716.5385
2023-05-12T07:01:30.106Z,707.3846
2023-05-12T07:02:32.170Z,701.1539
2023-05-12T07:03:34.118Z,699.9231
2023-05-12T07:04:36.153Z,701.3077
2023-05-12T07:05:38.250Z,704.0769
2023-05-12T07:06:40.270Z,706.0000
2023-05-12T07:07:42.262Z,700.3846
2023-05-12T07:08:44.338Z,696.2308
2023-05-12T07:09:46.371Z,702.3077
2023-05-12T07:10:48.441Z,714.6154
2023-05-12T07:11:50.453Z,723.6154
2023-05-12T07:12:52.478Z,724.6154
2023-05-12T07:13:54.566Z,723.5385
2023-05-12T07:14:56.602Z,721.4615
2023-05-12T07:15:58.669Z,722.8461
2023-05-12T07:17:00.688Z,719.4615
2023-05-12T07:18:02.764Z,720.7692
2023-05-12T07:19:04.850Z,718.4615
2023-05-12T07:20:06.812Z,714.6923
2023-05-12T07:21:08.874Z,715.7692
2023-05-12T07:22:10.903Z,703.9231
2023-05-12T07:23:12.986Z,699.0000
2023-05-12T07:24:15.050Z,704.3846
2023-05-12T07:25:17.119Z,715.5385
2023-05-12T07:26:19.117Z,696.8461
2023-05-12T07:27:21.145Z,691.0769
2023-05-12T07:28:23.203Z,686.7692
2023-05-12T07:29:25.234Z,684.3846
2023-05-12T07:30:27.282Z,696.1539
2023-05-12T07:31:29.377Z,683.5385
2023-05-12T07:32:31.401Z,671.0000
2023-05-12T07:33:33.430Z,667.6923
2023-05-12T07:34:35.482Z,670.5385
2023-05-12T07:35:37.525Z,668.4615
2023-05-12T07:36:39.654Z,673.5385
2023-05-12T07:37:41.624Z,697.2308
2023-05-12T07:38:43.670Z,713.0000
2023-05-12T07:39:45.744Z,717.1539
2023-05-12T07:40:47.765Z,715.6923
2023-05-12T07:41:49.812Z,710.6923
2023-05-12T07:42:51.874Z,694.5385
2023-05-12T07:43:53.882Z,687.7692
2023-05-12T07:44:55.905Z,690.1539
2023-05-12T07:45:57.971Z,687.3077
2023-05-12T07:47:00.081Z,685.2308
2023-05-12T07:48:02.130Z,688.2308
2023-05-12T07:49:04.110Z,694.6154
2023-05-12T07:50:06.151Z,690.2308
2023-05-12T07:51:08.196Z,686.8461
2023-05-12T07:52:10.330Z,684.6923
2023-05-12T07:53:12.293Z,684.7692
2023-05-12T07:54:14.351Z,684.4615
2023-05-12T07:55:16.386Z,687.5385
2023-05-12T07:56:18.430Z,685.6154
2023-05-12T07:57:20.467Z,679.3077
2023-05-12T07:58:22.535Z,676.1539
2023-05-12T07:59:24.584Z,672.9231
2023-05-12T08:00:26.618Z,646.6154
2023-05-12T08:01:28.671Z,642.6154
2023-05-12T08:02:30.835Z,654.1539
2023-05-12T08:03:32.829Z,690.4615
2023-05-12T08:04:34.877Z,703.3077
2023-05-12T08:05:36.953Z,712.1539
2023-05-12T08:06:38.895Z,711.9231
2023-05-12T08:07:41.201Z,711.1539
2023-05-12T08:08:43.051Z,706.7692
2023-05-12T08:09:45.020Z,721.7692
2023-05-12T08:10:47.084Z,718.3077
2023-05-12T08:11:50.828Z,720.9231
2023-05-12T08:12:51.180Z,712.8461
2023-05-12T08:13:53.199Z,702.3077
2023-05-12T08:14:55.266Z,706.2308
2023-05-12T08:15:57.289Z,729.6154
2023-05-12T08:16:59.530Z,741.1539
2023-05-12T08:18:01.571Z,729.0000
2023-05-12T08:19:03.476Z,743.2308
2023-05-12T08:20:05.526Z,745.7692
2023-05-12T08:21:07.535Z,737.3077
2023-05-12T08:22:09.568Z,730.2308
2023-05-12T08:23:11.633Z,722.5385
2023-05-12T08:24:13.749Z,724.1539
2023-05-12T08:25:15.717Z,744.5385
2023-05-12T08:26:17.761Z,729.3077
2023-05-12T08:27:19.845Z,721.7692
2023-05-12T08:28:21.873Z,730.8461
2023-05-12T08:29:23.929Z,737.3077
2023-05-12T08:30:25.977Z,741.6154
2023-05-12T08:31:28.079Z,734.6154
2023-05-12T08:32:30.107Z,716.5385
2023-05-12T08:33:32.116Z,705.5385
2023-05-12T08:34:34.232Z,698.6923
2023-05-12T08:35:36.273Z,704.9231
2023-05-12T08:36:38.317Z,690.8461
2023-05-12T08:37:40.384Z,717.9231
2023-05-12T08:38:42.452Z,704.3077
2023-05-12T08:39:44.564Z,698.6154
2023-05-12T08:40:46.616Z,696.9231
2023-05-12T08:41:48.582Z,695.3077
2023-05-12T08:42:50.619Z,698.1539
2023-05-12T08:43:52.701Z,695.1539
2023-05-12T08:44:54.799Z,699.5385
2023-05-12T08:45:56.815Z,686.3846
2023-05-12T08:46:58.856Z,677.7692
2023-05-12T08:48:00.938Z,670.8461
2023-05-12T08:49:02.928Z,672.8461
2023-05-12T08:50:05.002Z,693.6154
2023-05-12T08:51:06.995Z,697.4615
2023-05-12T08:52:09.068Z,710.7692
2023-05-12T08:53:11.139Z,720.0769
2023-05-12T08:54:13.190Z,722.4615
2023-05-12T08:55:15.405Z,717.9231
2023-05-12T08:57:19.317Z,720.4615
2023-05-12T08:58:27.797Z,707.2308
2023-05-12T08:59:23.417Z,693.6154
2023-05-12T09:00:25.513Z,686.8461
2023-05-12T09:01:27.487Z,689.5385
2023-05-12T09:02:37.570Z,691.8461
2023-05-12T09:03:31.603Z,697.3846
2023-05-12T09:04:33.688Z,695.3846
2023-05-12T09:05:35.665Z,700.2308
2023-05-12T09:06:37.738Z,709.9231
2023-05-12T09:07:39.780Z,706.1539
2023-05-12T09:08:41.847Z,701.7692
2023-05-12T09:09:43.867Z,698.4615
2023-05-12T09:10:45.963Z,720.1539
2023-05-12T09:11:47.951Z,725.5385
2023-05-12T09:12:50.018Z,715.0000
2023-05-12T09:13:52.061Z,721.2308
2023-05-12T09:14:54.089Z,726.9231
2023-05-12T09:15:56.196Z,724.8461
2023-05-12T09:16:58.201Z,714.2308
2023-05-12T09:18:00.292Z,709.6154
2023-05-12T09:19:03.146Z,710.6154
2023-05-12T09:20:04.338Z,718.5385
2023-05-12T09:21:06.432Z,718.6923
2023-05-12T09:22:08.455Z,716.6923
2023-05-12T09:23:10.512Z,714.3077
2023-05-12T09:24:12.524Z,711.0000
2023-05-12T09:25:14.922Z,708.0000
2023-05-12T09:26:16.654Z,721.9231
2023-05-12T09:27:18.677Z,722.3077
2023-05-12T09:28:20.730Z,719.4615
2023-05-12T09:29:31.319Z,718.4615
2023-05-12T09:30:24.810Z,706.3846
2023-05-12T09:31:26.921Z,722.2308
2023-05-12T09:32:28.964Z,724.3846
2023-05-12T09:33:30.996Z,715.1539
2023-05-12T09:34:33.029Z,727.6923
2023-05-12T09:35:35.078Z,710.5385
2023-05-12T09:36:37.130Z,719.2308
2023-05-12T09:37:39.311Z,692.0000
2023-05-12T09:38:41.235Z,691.1539
2023-05-12T09:39:43.259Z,716.0000
2023-05-12T09:40:45.419Z,701.6154
2023-05-12T09:41:47.365Z,696.6154
2023-05-12T09:42:49.426Z,696.3077
2023-05-12T09:43:51.480Z,693.6154
2023-05-12T09:44:53.518Z,688.9231
2023-05-12T09:45:55.633Z,690.3846
2023-05-12T09:46:57.598Z,689.2308
2023-05-12T09:47:59.727Z,709.7692
2023-05-12T09:49:01.711Z,702.0769
2023-05-12T09:50:03.747Z,702.0000
2023-05-12T09:51:06.053Z,697.6923
2023-05-12T09:52:07.830Z,692.7692
2023-05-12T09:53:09.953Z,709.2308
2023-05-12T09:54:11.924Z,713.8461
2023-05-12T09:55:14.005Z,718.2308
2023-05-12T09:56:16.040Z,711.0000
2023-05-12T09:57:18.087Z,715.2308
2023-05-12T09:58:20.098Z,726.9231
2023-05-12T09:59:22.176Z,724.7692
2023-05-12T10:01:26.332Z,705.3077
2023-05-12T10:02:28.427Z,721.3077
2023-05-12T10:03:30.413Z,728.1539
2023-05-12T10:04:32.508Z,726.6923
2023-05-12T10:05:34.434Z,719.8461
2023-05-12T10:06:36.491Z,720.7692
2023-05-12T10:07:38.554Z,718.3846
2023-05-12T10:08:40.602Z,735.8461
2023-05-12T10:09:42.660Z,744.3077
2023-05-12T10:10:44.655Z,747.6923
2023-05-12T10:11:46.711Z,750.6923
2023-05-12T10:12:48.784Z,747.6154
2023-05-12T10:13:50.810Z,751.0000
2023-05-12T10:14:52.896Z,769.6154
2023-05-12T10:15:54.928Z,793.3846
2023-05-12T10:16:57.028Z,800.3077
2023-05-12T10:17:59.022Z,769.3846
2023-05-12T10:19:01.083Z,781.1539
2023-05-12T10:20:03.140Z,814.0769
2023-05-12T10:21:05.187Z,807.0769
2023-05-12T10:22:07.211Z,842.0769
2023-05-12T10:23:09.345Z,818.4615
2023-05-12T10:24:11.284Z,820.0769
2023-05-12T10:25:13.348Z,809.4615
2023-05-12T10:26:15.401Z,751.9231
2023-05-12T10:27:17.466Z,768.3077
2023-05-12T10:28:19.482Z,773.7692
2023-05-12T10:29:21.544Z,773.4615
2023-05-12T10:30:23.614Z,764.1539
2023-05-12T10:31:25.673Z,762.2308
2023-05-12T10:32:27.691Z,758.1539
2023-05-12T10:33:29.717Z,754.6923
2023-05-12T10:34:31.850Z,757.3077
2023-05-12T10:35:33.862Z,766.2308
2023-05-12T10:36:35.862Z,765.8461
2023-05-12T10:37:38.599Z,762.6154
2023-05-12T10:38:39.988Z,765.9231
2023-05-12T10:39:42.083Z,786.6923
2023-05-12T10:40:44.059Z,825.6154
2023-05-12T10:41:46.209Z,790.0769
2023-05-12T10:42:48.186Z,786.9231
2023-05-12T10:43:50.251Z,773.7692
2023-05-12T10:44:52.308Z,766.4615
2023-05-12T10:45:54.509Z,766.0769
2023-05-12T10:46:56.367Z,773.0769
2023-05-12T10:47:58.466Z,774.4615
2023-05-12T10:49:00.490Z,766.1539
2023-05-12T10:50:02.579Z,760.2308
2023-05-12T10:51:04.594Z,739.3077
2023-05-12T10:52:06.656Z,726.0769
2023-05-12T10:53:09.965Z,735.6923
2023-05-12T10:54:10.747Z,739.1539
2023-05-12T10:55:12.816Z,771.3077
2023-05-12T10:56:15.034Z,773.3077
2023-05-12T10:57:18.908Z,768.0000
2023-05-12T10:58:19.313Z,765.5385
2023-05-12T10:59:21.405Z,761.6154
2023-05-12T11:00:23.808Z,744.4615
2023-05-12T11:01:25.305Z,736.4615
2023-05-12T11:02:27.917Z,727.5385
2023-05-12T11:03:30.374Z,720.6154
2023-05-12T11:04:31.359Z,713.9231
2023-05-12T11:05:33.529Z,703.6154
2023-05-12T11:06:36.337Z,692.0769
2023-05-12T11:07:37.800Z,698.3077
2023-05-12T11:08:40.186Z,700.3846
2023-05-12T11:09:52.400Z,702.2308
2023-05-12T11:10:43.575Z,709.7692
2023-05-12T11:11:45.864Z,690.0769
2023-05-12T11:12:47.625Z,694.6154
2023-05-12T11:13:49.708Z,700.1539
2023-05-12T11:14:51.740Z,684.1539
2023-05-12T11:15:53.835Z,669.1539
2023-05-12T11:16:55.912Z,664.3846
2023-05-12T11:17:57.930Z,652.5385
2023-05-12T11:19:00.029Z,630.4615
2023-05-12T11:20:02.156Z,637.3846
2023-05-12T11:21:04.066Z,643.4615
2023-05-12T11:22:06.068Z,641.6923
2023-05-12T11:23:08.133Z,644.9231
2023-05-12T11:24:13.161Z,683.2308
2023-05-12T11:25:12.915Z,693.3077
2023-05-12T11:26:14.290Z,704.6923
2023-05-12T11:27:16.323Z,703.3077
2023-05-12T11:28:18.384Z,693.5385
2023-05-12T11:29:20.425Z,692.1539
2023-05-12T11:30:22.482Z,687.8461
2023-05-12T11:31:24.583Z,678.2308
2023-05-12T11:32:26.732Z,689.9231
2023-05-12T11:33:28.763Z,689.5385
2023-05-12T11:34:30.706Z,677.6154
2023-05-12T11:35:32.796Z,683.7692
2023-05-12T11:36:34.760Z,691.4615
2023-05-12T11:37:36.890Z,740.2308
2023-05-12T11:38:38.865Z,735.3077
2023-05-12T11:39:40.923Z,735.0000
2023-05-12T11:40:42.944Z,747.6154
2023-05-12T11:41:45.002Z,728.4615
2023-05-12T11:42:47.206Z,721.6923
2023-05-12T11:43:49.118Z,726.6154
2023-05-12T11:44:51.155Z,738.7692
2023-05-12T11:45:53.251Z,733.0000
2023-05-12T11:46:55.256Z,743.3077
2023-05-12T11:47:59.272Z,721.0769
2023-05-12T11:48:59.427Z,723.3077
2023-05-12T11:50:01.379Z,715.6923
2023-05-12T11:51:03.456Z,712.9231
2023-05-12T11:52:05.491Z,719.7692
2023-05-12T11:53:07.517Z,715.6923
2023-05-12T11:54:09.610Z,706.1539
2023-05-12T11:55:11.658Z,699.2308
2023-05-12T11:56:13.692Z,719.0000
2023-05-12T11:57:15.746Z,699.0769
2023-05-12T11:58:17.794Z,679.7692
2023-05-12T11:59:19.901Z,676.8461
2023-05-12T12:00:21.884Z,696.3077
2023-05-12T12:01:23.939Z,706.3846
2023-05-12T12:02:26.020Z,708.4615
2023-05-12T12:03:28.139Z,703.9231
2023-05-12T12:04:30.187Z,713.2308
2023-05-12T12:05:32.111Z,710.8461
2023-05-12T12:06:34.169Z,710.6923
2023-05-12T12:07:36.224Z,711.0769
2023-05-12T12:08:38.354Z,700.5385
2023-05-12T12:09:40.295Z,697.2308
2023-05-12T12:10:42.376Z,735.7692
2023-05-12T12:11:44.401Z,696.6154
2023-05-12T12:12:46.421Z,704.2308
2023-05-12T12:13:48.470Z,708.3846
2023-05-12T12:14:50.606Z,720.5385
2023-05-12T12:15:52.621Z,748.6154
2023-05-12T12:16:54.632Z,743.9231
2023-05-12T12:17:56.784Z,740.7692
2023-05-12T12:18:58.731Z,742.2308
2023-05-12T12:20:00.770Z,750.0769
2023-05-12T12:21:02.870Z,758.1539
2023-05-12T12:22:04.849Z,756.6154
2023-05-12T12:23:06.903Z,732.3846
2023-05-12T12:24:08.960Z,747.9231
2023-05-12T12:25:10.992Z,729.3077
2023-05-12T12:26:13.156Z,724.1539
2023-05-12T12:27:15.094Z,722.3077
2023-05-12T12:28:17.125Z,715.6923
2023-05-12T12:29:19.147Z,709.5385
2023-05-12T12:30:21.193Z,694.8461
2023-05-12T12:31:23.288Z,686.6923
2023-05-12T12:32:25.323Z,688.2308
2023-05-12T12:33:27.504Z,689.4615
2023-05-12T12:34:29.396Z,695.0000
2023-05-12T12:35:31.460Z,694.0769
2023-05-12T12:36:33.468Z,696.3077
2023-05-12T12:37:35.532Z,697.6923
2023-05-12T12:38:37.576Z,697.3077
2023-05-12T12:39:39.730Z,687.9231
2023-05-12T12:40:41.785Z,687.8461
2023-05-12T12:41:43.789Z,699.1539
2023-05-12T12:42:45.823Z,696.3846
2023-05-12T12:43:47.871Z,704.0769
2023-05-12T12:44:49.930Z,714.1539
2023-05-12T12:45:52.100Z,725.1539
2023-05-12T12:46:54.026Z,722.0769
2023-05-12T12:47:56.087Z,714.3077
2023-05-12T12:48:58.091Z,709.9231
2023-05-12T12:50:00.216Z,714.9231
2023-05-12T12:51:02.209Z,722.6154
2023-05-12T12:52:04.257Z,721.5385
2023-05-12T12:53:06.429Z,697.0769
2023-05-12T12:54:08.352Z,715.5385
2023-05-12T12:55:10.400Z,716.6923
2023-05-12T12:56:12.434Z,734.3846
2023-05-12T12:57:14.522Z,724.6923
2023-05-12T12:58:16.519Z,723.0769
2023-05-12T12:59:18.605Z,745.8461
2023-05-12T13:00:20.629Z,755.5385
2023-05-12T13:01:22.762Z,768.8461
2023-05-12T13:02:24.979Z,771.9231
2023-05-12T13:03:26.797Z,783.5385
2023-05-12T13:04:28.912Z,722.3077
2023-05-12T13:05:30.886Z,734.6923
2023-05-12T13:06:32.920Z,731.8461
2023-05-12T13:07:34.990Z,761.1539
2023-05-12T13:08:37.025Z,759.9231
2023-05-12T13:09:39.134Z,753.4615
2023-05-12T13:10:41.152Z,742.5385
2023-05-12T13:11:43.181Z,738.0769
2023-05-12T13:12:45.215Z,721.0000
2023-05-12T13:13:47.297Z,722.3846
2023-05-12T13:14:49.323Z,761.6154
2023-05-12T13:15:51.357Z,716.3077
2023-05-12T13:16:53.463Z,717.7692
2023-05-12T13:17:55.517Z,713.3846
2023-05-12T13:18:57.598Z,707.5385
2023-05-12T13:19:59.568Z,708.3077
2023-05-12T13:21:01.637Z,716.3077
2023-05-12T13:22:03.679Z,724.4615
2023-05-12T13:23:05.718Z,713.0769
2023-05-12T13:24:07.767Z,707.0000
2023-05-12T13:25:09.790Z,703.0000
2023-05-12T13:26:11.869Z,701.5385
2023-05-12T13:27:13.888Z,707.1539
2023-05-12T13:28:15.986Z,701.0000
2023-05-12T13:29:18.004Z,732.7692
2023-05-12T13:30:20.045Z,723.9231
2023-05-12T13:31:22.131Z,724.6154
2023-05-12T13:32:24.183Z,730.8461
2023-05-12T13:33:26.192Z,737.9231
2023-05-12T13:34:28.250Z,745.4615
2023-05-12T13:35:30.311Z,731.8461
2023-05-12T13:36:32.340Z,718.3846
2023-05-12T13:37:34.382Z,710.6923
2023-05-12T13:38:36.481Z,723.0000
2023-05-12T13:39:38.507Z,740.6923
2023-05-12T13:40:40.541Z,715.9231
2023-05-12T13:41:42.570Z,740.2308
2023-05-12T13:42:44.645Z,734.7692
2023-05-12T13:43:46.666Z,719.4615
2023-05-12T13:44:48.738Z,722.9231
2023-05-12T13:45:50.788Z,717.2308
2023-05-12T13:46:52.843Z,715.8461
2023-05-12T13:47:54.958Z,710.4615
2023-05-12T13:48:56.962Z,700.3846
2023-05-12T13:49:59.044Z,700.7692
2023-05-12T13:51:01.005Z,712.3846
2023-05-12T13:52:03.069Z,699.2308
2023-05-12T13:53:05.095Z,697.3077
2023-05-12T13:54:07.154Z,678.9231
2023-05-12T13:55:09.237Z,678.8461
2023-05-12T13:56:11.265Z,685.6923
2023-05-12T13:57:13.327Z,680.2308
2023-05-12T13:58:15.380Z,684.2308
2023-05-12T13:59:17.410Z,646.2308
2023-05-12T14:00:19.471Z,668.3846
2023-05-12T14:01:21.555Z,674.7692
2023-05-12T14:02:23.598Z,665.0769
2023-05-12T14:03:25.581Z,665.9231
2023-05-12T14:04:27.656Z,666.4615
2023-05-12T14:05:29.730Z,670.4615
2023-05-12T14:06:31.719Z,649.1539
2023-05-12T14:07:33.765Z,647.2308
2023-05-12T14:08:35.849Z,643.6154
2023-05-12T14:09:37.880Z,652.6154
2023-05-12T14:10:39.926Z,638.6154
2023-05-12T14:11:41.990Z,648.6923
2023-05-12T14:12:44.036Z,676.6923
2023-05-12T14:13:46.072Z,660.2308
2023-05-12T14:14:48.142Z,655.7692
2023-05-12T14:15:50.466Z,657.3846
2023-05-12T14:16:52.361Z,664.6154
2023-05-12T14:17:54.359Z,665.6154
2023-05-12T14:18:56.397Z,683.5385
2023-05-12T14:19:58.370Z,681.4615
2023-05-12T14:21:00.457Z,698.6154
2023-05-12T14:22:05.860Z,720.5385
2023-05-12T14:23:04.545Z,758.9231
2023-05-12T14:24:06.592Z,755.8461
2023-05-12T14:25:08.665Z,756.3077
2023-05-12T14:26:10.675Z,759.8461
2023-05-12T14:27:12.747Z,752.8461
2023-05-12T14:28:14.860Z,735.5385
2023-05-12T14:29:16.886Z,743.1539
2023-05-12T14:30:19.038Z,751.5385
2023-05-12T14:31:20.954Z,725.7692
2023-05-12T14:32:23.004Z,720.8461
2023-05-12T14:33:25.038Z,713.8461
2023-05-12T14:34:27.103Z,705.6154
2023-05-12T14:35:29.163Z,696.7692
2023-05-12T14:36:31.203Z,695.6154
2023-05-12T14:37:33.228Z,694.8461
2023-05-12T14:38:35.302Z,692.8461
2023-05-12T14:39:37.334Z,692.6154
2023-05-12T14:40:40.336Z,691.3846
2023-05-12T14:41:41.460Z,690.3846
2023-05-12T14:42:43.577Z,692.5385
2023-05-12T14:43:45.529Z,705.0769
2023-05-12T14:44:47.598Z,712.0769
2023-05-12T14:45:49.702Z,718.4615
2023-05-12T14:46:51.696Z,710.3077
2023-05-12T14:47:53.798Z,704.0000
2023-05-12T14:48:55.827Z,708.8461
2023-05-12T14:49:57.815Z,707.0000
2023-05-12T14:50:59.901Z,708.3077
2023-05-12T14:52:01.947Z,703.3846
2023-05-12T14:53:04.087Z,700.6154
2023-05-12T14:54:12.594Z,694.0000
2023-05-12T14:55:09.077Z,697.0000
2023-05-12T14:56:10.177Z,697.4615
2023-05-12T14:57:12.206Z,696.8461
2023-05-12T14:58:14.311Z,698.2308
2023-05-12T14:59:16.282Z,702.3846
2023-05-12T15:00:18.329Z,707.8461
2023-05-12T15:01:20.403Z,715.1539
2023-05-12T15:02:22.457Z,719.6154
2023-05-12T15:03:24.688Z,729.4615
2023-05-12T15:04:26.557Z,727.9231
2023-05-12T15:05:41.335Z,727.5385
2023-05-12T15:06:30.653Z,714.8461
2023-05-12T15:07:32.659Z,698.0769
2023-05-12T15:08:34.790Z,685.3077
2023-05-12T15:09:36.778Z,662.3846
2023-05-12T15:10:38.807Z,640.3077
2023-05-12T15:11:40.866Z,638.8461
2023-05-12T15:12:42.914Z,648.0769
2023-05-12T15:13:44.946Z,662.2308
2023-05-12T15:14:47.015Z,647.4615
2023-05-12T15:15:51.836Z,648.2308
2023-05-12T15:16:51.136Z,654.1539
2023-05-12T15:17:53.214Z,675.0000
2023-05-12T15:18:55.254Z,694.6923
2023-05-12T15:19:57.339Z,714.3077
2023-05-12T15:20:59.306Z,714.3846
2023-05-12T15:22:01.352Z,720.7692
2023-05-12T15:23:03.390Z,700.3846
2023-05-12T15:24:05.466Z,712.0769
2023-05-12T15:25:07.507Z,710.6923
2023-05-12T15:26:26.950Z,722.3846
2023-05-12T15:27:11.591Z,733.1539
2023-05-12T15:28:13.672Z,733.3846
2023-05-12T15:29:15.697Z,737.6154
2023-05-12T15:30:17.751Z,744.6923
2023-05-12T15:31:20.385Z,742.0769
2023-05-12T15:32:21.850Z,745.8461
2023-05-12T15:33:23.883Z,751.8461
2023-05-12T15:34:25.945Z,732.3077
2023-05-12T15:35:27.969Z,732.3846
2023-05-12T15:36:30.016Z,746.6923
2023-05-12T15:37:32.289Z,751.6154
2023-05-12T15:38:34.125Z,745.4615
2023-05-12T15:39:36.153Z,735.2308
2023-05-12T15:40:38.305Z,731.6923
2023-05-12T15:41:40.305Z,731.4615
2023-05-12T15:42:42.331Z,716.0000
2023-05-12T15:43:44.342Z,706.4615
2023-05-12T15:44:46.615Z,714.4615
2023-05-12T15:45:48.547Z,718.6923
2023-05-12T15:46:50.643Z,724.2308
2023-05-12T15:47:52.593Z,729.9231
2023-05-12T15:48:54.588Z,717.6923
2023-05-12T15:49:56.649Z,719.8461
2023-05-12T15:50:58.702Z,742.0000
2023-05-12T15:52:00.740Z,751.0000
2023-05-12T15:53:02.766Z,761.9231
2023-05-12T15:54:05.587Z,766.8461
2023-05-12T15:55:07.039Z,769.8461
2023-05-12T15:56:08.980Z,766.5385
2023-05-12T15:57:11.029Z,767.3077
2023-05-12T15:58:13.041Z,775.6154
2023-05-12T15:59:15.121Z,778.0769
2023-05-12T16:00:17.205Z,789.4615
2023-05-12T16:01:19.232Z,786.0000
2023-05-12T16:02:21.231Z,789.6923
2023-05-12T16:03:23.515Z,788.3846
2023-05-12T16:04:25.341Z,793.4615
2023-05-12T16:05:27.367Z,780.3077
2023-05-12T16:06:29.401Z,799.9231
2023-05-12T16:07:31.498Z,789.6154
2023-05-12T16:08:33.531Z,779.6154
2023-05-12T16:09:35.549Z,751.9231
2023-05-12T16:10:37.725Z,741.9231
2023-05-12T16:11:39.834Z,733.2308
2023-05-12T16:12:41.910Z,732.8461
2023-05-12T16:13:43.793Z,735.0769
2023-05-12T16:14:45.797Z,717.6923
2023-05-12T16:15:47.842Z,697.6923
2023-05-12T16:16:49.917Z,682.9231
2023-05-12T16:17:51.973Z,680.1539
2023-05-12T16:18:53.989Z,682.7692
2023-05-12T16:19:56.099Z,680.1539
2023-05-12T16:20:58.146Z,683.6154
2023-05-12T16:22:00.371Z,687.5385
2023-05-12T16:23:02.172Z,684.6923
2023-05-12T16:24:04.214Z,701.6923
2023-05-12T16:25:06.258Z,683.5385
2023-05-12T16:26:08.338Z,679.4615
2023-05-12T16:27:10.398Z,677.6923
2023-05-12T16:28:12.430Z,691.3077
2023-05-12T16:29:14.467Z,685.2308
2023-05-12T16:30:18.496Z,682.4615
2023-05-12T16:31:18.814Z,701.3846
2023-05-12T16:32:20.729Z,678.9231
2023-05-12T16:33:22.653Z,675.2308
2023-05-12T16:34:24.729Z,685.7692
2023-05-12T16:35:26.832Z,729.6154
2023-05-12T16:36:28.889Z,757.3846
2023-05-12T16:37:30.886Z,744.6154
2023-05-12T16:38:33.090Z,704.9231
2023-05-12T16:39:34.968Z,711.9231
2023-05-12T16:40:37.041Z,703.4615
2023-05-12T16:41:39.088Z,704.3846